Aérodrome :
LOGIN :

S'inscrire | Disclaimer

   EN    FR    IT 

 










Légende :    VFR   VFR Marginal   IFR   IFR Intensif   IFR Très Intensif
Visi : 
Plafond : 
>= 8 km
>= 3000ft
5 à 8 km
1000 à 3000 ft
1500m à 5 km
500 à 1000 ft
800 à 1500m
200 à 500 ft
< 800m
< 200 ft
Symboles :   Orages  Brouillard  Fortes neiges  Fortes précipitations  Vent > 20 kt
SIGMETs :   Divers  Orages  Givrage  Turbulence  Onde Orograph.  Cendres Volcan.






- Altitude de l'aérodrome : 16 ft
- Code IATA : SDR


LEXJ - Santander Cantabria

DERNIER METAR :
  • 041930Z 26013KT 220V280 9999 SCT026 BKN034 07/04 Q0995

METARs EXPIRÉS :
  • 041900Z 23010KT 200V260 9999 SCT026 BKN040 06/04 Q0995
  • 041830Z 23008KT 200V260 9999 SCT032 BKN054 06/04 Q0994
  • 041800Z 20007KT 9999 SCT028 BKN035 05/04 Q0994
  • 041730Z 21005KT 160V250 9999 -RA FEW018 SCT032 BKN048 06/04 Q0995
  • 041700Z 31013G23KT 270V350 9999 RA SCT018 SCT032 BKN048 06/04 Q0995

TAF TAF LEXJ
Valide du 04 à 15h jusqu'au 05 à 15h UTC


041400Z 0415/0515 26009KT 9999 SCT025 SCT050 TX06/0515Z TN02/0507Z
TEMPO 0415/0515 26015G25KT
TEMPO 0415/0421 28020G35KT 3000 RA SHRA SCT030TCU
PROB40
TEMPO 0421/0509 3000 RA SHRA BKN010 SCT030TCU
TEMPO 0509/0515 28022G35KT 3000 RA SHRA BKN010 SCT030TCU
PROB30
TEMPO 0415/0515 TSGS SCT030CB



MET'MAP, la Météo Aéronautique d'un coup d'oeil ! - Copyright ORBIFLY Décembre 2007 - Disclaimer

ORBIFLY MET'MAP TEAM :

Programmation & Développement : Alexandra Zaïnal
Sur une idée originale de : Baudouin d'Aumeries
Assistance à la programmation : Marc-Olivier Méhu
Soutien technique & logistique : Manuel Goepfert

Contact : metmap@orbifly.com




SOURCES & CREDITS :

   NOAA